Gillette, WY

6:07 AM MDT on July 22, 2014 (GMT -0600)
Gillette-Campbell County (KGCC) Elev 4364 ft | 44.34 °N, 105.54 °W | Change Station

Current weather conditions updated 14 minutes ago

Clear
Clear
62 °F
Feels Like 62 °F
N
5
Wind Variable Wind from Variable

Today is forecast to be nearly the same temperature as yesterday.

Today
High -- | Low -- °F
--% Chance of Precip.
Yesterday
High -- | Low -- °F
Precip. -- in
5:38 AM 8:39 PM
Waning Crescent, 18% visible
Pressure 30.09 in
Visibility 10.0 miles
Clouds Clear
Dew Point 55 °F
Humidity 78%
Rainfall 0.00 in
Snow Depth Not available.
UV 0 out of 12
Pollen 5.30 out of 12
Air Quality Not available.
Flu Activity Sporadic
METAR KGCC 221153Z AUTO VRB04KT 10SM CLR 17/13 A3022 RMK AO2 SLP187 70005 T01670128 10178 20144 51013

More Conditions Fewer Conditions

Pressure 30.09 in
Visibility 10.0 miles
Clouds Clear
Dew Point 55 °F
Humidity 78%
Rainfall 0.00 in
Snow Depth Not available.
UV 0 out of 12
Pollen 5.30 out of 12
Air Quality Not available.
Flu Activity Sporadic
METAR KGCC 221153Z AUTO VRB04KT 10SM CLR 17/13 A3022 RMK AO2 SLP187 70005 T01670128 10178 20144 51013

More Conditions Fewer Conditions

10-Day Weather Forecast

LIGHTNING

Thunderstorms are forecast for your area. Cloud conditions might be right for producing strikes in the next few days, though lightning itself cannot be forecasted.

Lightning is a visible electrical discharge produced by a thunderstorm, based on the build up of oppositely charged particles within a cloud and from cloud to ground.

Know how to stay safe in a lightning storm.

Check out these Lightning WunderPhotos!

Almanac

Astronomy

Jul. 22, 2014 Rise Set
Actual Time 5:38 AM MDT 8:39 PM MDT
Civil Twilight 5:03 AM MDT 9:13 PM MDT
Nautical Twilight 4:19 AM MDT 9:57 PM MDT
Astronomical Twilight 3:26 AM MDT 10:50 PM MDT
Moon 2:15 AM MDT 5:18 PM MDT
Length of Visible Light 16h 09m
Length of Day
15h 00m
Tomorrow will be 2m 1s shorter.
Waning Crescent, 18% of the Moon is Illuminated
Today
Waning Crescent
Jul 26
New
Aug 3
First Quarter
Aug 10
Full
Aug 17
Last Quarter

Today's Extremes

State Highs State Lows

Community

WunderPhotos

Upload Photos

1,736,205 photos uploaded!

Nearby

Snow Depth

Station Depth Elevation
Casper Mountain 0 in 7850 ft
Reno Hill 0 in 8500 ft
Laprele Creek 0 in 8375 ft
Burroughs Creek 0 in 8750 ft
Sand Lake 0 in 10050 ft

Earthquake Activity

City Distance Mag. Time & Date
No recent earthquake activity has been reported nearby.
Minimum magnitude displayed is 2.5.

Coastal Water Temperatures

Place Temperature
No Stations Reporting

Nearby Weather Stations

Station Location Temp. Dew Point Humidity Wind Precip. Elev Updated Type
RAWS ECHETA WY, Gillette, WY 61 °F 56 °F 83% South  at  4 mph 0.00 in / hr 4396 ft 4:51 AM MDT MADIS
(North Gillette), Gillette, WY 62.2 °F 57 °F 82% WNW  at  0.0 mph 0.00 in / hr 4610 ft 6:07 AM MDT Rapid Fire

Show More Stations Show Fewer Stations